sensor_id;sensor_type;location;lat;lon;timestamp;P1;durP1;ratioP1;P2;durP2;ratioP2
80481;SDS011;69797;43.864;21.410;2024-01-30T00:00:25;69.53;;;40.28;;
80481;SDS011;69797;43.864;21.410;2024-01-30T00:02:52;89.63;;;44.38;;
80481;SDS011;69797;43.864;21.410;2024-01-30T00:05:19;88.30;;;41.65;;
80481;SDS011;69797;43.864;21.410;2024-01-30T00:07:46;94.00;;;47.50;;
80481;SDS011;69797;43.864;21.410;2024-01-30T00:10:13;99.50;;;48.15;;
80481;SDS011;69797;43.864;21.410;2024-01-30T00:12:40;96.20;;;49.30;;
80481;SDS011;69797;43.864;21.410;2024-01-30T00:15:07;98.15;;;51.67;;
80481;SDS011;69797;43.864;21.410;2024-01-30T00:17:36;96.03;;;47.05;;
80481;SDS011;69797;43.864;21.410;2024-01-30T00:20:04;85.87;;;47.37;;
80481;SDS011;69797;43.864;21.410;2024-01-30T00:22:32;97.88;;;47.72;;
80481;SDS011;69797;43.864;21.410;2024-01-30T00:24:58;90.07;;;46.92;;
80481;SDS011;69797;43.864;21.410;2024-01-30T00:27:26;99.80;;;51.17;;
80481;SDS011;69797;43.864;21.410;2024-01-30T00:29:54;106.32;;;54.30;;
80481;SDS011;69797;43.864;21.410;2024-01-30T00:32:20;97.63;;;52.63;;
80481;SDS011;69797;43.864;21.410;2024-01-30T00:34:49;103.18;;;53.17;;
80481;SDS011;69797;43.864;21.410;2024-01-30T00:37:16;156.00;;;71.00;;
80481;SDS011;69797;43.864;21.410;2024-01-30T00:39:43;161.07;;;74.15;;
80481;SDS011;69797;43.864;21.410;2024-01-30T00:42:10;154.70;;;70.18;;
80481;SDS011;69797;43.864;21.410;2024-01-30T00:44:36;133.27;;;65.60;;
80481;SDS011;69797;43.864;21.410;2024-01-30T00:47:05;117.38;;;57.38;;
80481;SDS011;69797;43.864;21.410;2024-01-30T00:49:32;115.28;;;53.85;;
80481;SDS011;69797;43.864;21.410;2024-01-30T00:52:00;87.78;;;53.25;;
80481;SDS011;69797;43.864;21.410;2024-01-30T00:54:27;99.50;;;53.65;;
80481;SDS011;69797;43.864;21.410;2024-01-30T00:56:54;121.30;;;58.13;;
80481;SDS011;69797;43.864;21.410;2024-01-30T00:59:20;93.20;;;49.92;;
80481;SDS011;69797;43.864;21.410;2024-01-30T01:01:47;117.95;;;56.28;;
80481;SDS011;69797;43.864;21.410;2024-01-30T01:04:14;116.38;;;56.17;;
80481;SDS011;69797;43.864;21.410;2024-01-30T01:06:41;118.05;;;57.10;;
80481;SDS011;69797;43.864;21.410;2024-01-30T01:09:11;117.43;;;56.27;;
80481;SDS011;69797;43.864;21.410;2024-01-30T01:11:38;95.45;;;47.03;;
80481;SDS011;69797;43.864;21.410;2024-01-30T01:14:05;82.13;;;43.42;;
80481;SDS011;69797;43.864;21.410;2024-01-30T01:16:32;90.05;;;46.30;;
80481;SDS011;69797;43.864;21.410;2024-01-30T01:18:59;77.30;;;41.55;;
80481;SDS011;69797;43.864;21.410;2024-01-30T01:21:27;78.57;;;42.93;;
80481;SDS011;69797;43.864;21.410;2024-01-30T01:23:54;143.05;;;64.57;;
80481;SDS011;69797;43.864;21.410;2024-01-30T01:26:21;94.47;;;51.80;;
80481;SDS011;69797;43.864;21.410;2024-01-30T01:28:48;85.60;;;48.13;;
80481;SDS011;69797;43.864;21.410;2024-01-30T01:31:15;87.75;;;45.55;;
80481;SDS011;69797;43.864;21.410;2024-01-30T01:33:42;60.93;;;33.27;;
80481;SDS011;69797;43.864;21.410;2024-01-30T01:36:09;50.60;;;29.77;;
80481;SDS011;69797;43.864;21.410;2024-01-30T01:38:36;53.33;;;28.52;;
80481;SDS011;69797;43.864;21.410;2024-01-30T01:41:02;55.53;;;28.38;;
80481;SDS011;69797;43.864;21.410;2024-01-30T01:43:29;56.28;;;30.00;;
80481;SDS011;69797;43.864;21.410;2024-01-30T01:45:56;73.20;;;42.90;;
80481;SDS011;69797;43.864;21.410;2024-01-30T01:48:23;64.93;;;33.78;;
80481;SDS011;69797;43.864;21.410;2024-01-30T01:50:51;55.30;;;32.10;;
80481;SDS011;69797;43.864;21.410;2024-01-30T01:53:19;56.20;;;32.38;;
80481;SDS011;69797;43.864;21.410;2024-01-30T01:55:45;57.58;;;32.63;;
80481;SDS011;69797;43.864;21.410;2024-01-30T01:58:14;59.20;;;33.33;;
80481;SDS011;69797;43.864;21.410;2024-01-30T02:00:41;62.30;;;35.50;;
80481;SDS011;69797;43.864;21.410;2024-01-30T02:03:10;61.75;;;33.45;;
80481;SDS011;69797;43.864;21.410;2024-01-30T02:05:38;64.88;;;33.38;;
80481;SDS011;69797;43.864;21.410;2024-01-30T02:08:07;83.40;;;46.97;;
80481;SDS011;69797;43.864;21.410;2024-01-30T02:10:35;47.97;;;30.33;;
80481;SDS011;69797;43.864;21.410;2024-01-30T02:13:02;47.92;;;26.60;;
80481;SDS011;69797;43.864;21.410;2024-01-30T02:15:29;57.50;;;31.08;;
80481;SDS011;69797;43.864;21.410;2024-01-30T02:17:55;60.13;;;29.02;;
80481;SDS011;69797;43.864;21.410;2024-01-30T02:20:23;52.65;;;31.55;;
80481;SDS011;69797;43.864;21.410;2024-01-30T02:22:52;59.97;;;33.70;;
80481;SDS011;69797;43.864;21.410;2024-01-30T02:25:20;64.05;;;37.22;;
80481;SDS011;69797;43.864;21.410;2024-01-30T02:27:56;76.47;;;41.08;;
80481;SDS011;69797;43.864;21.410;2024-01-30T02:30:23;68.32;;;39.10;;
80481;SDS011;69797;43.864;21.410;2024-01-30T02:32:49;72.47;;;38.67;;
80481;SDS011;69797;43.864;21.410;2024-01-30T02:35:16;67.90;;;40.50;;
80481;SDS011;69797;43.864;21.410;2024-01-30T02:37:43;70.03;;;42.58;;
80481;SDS011;69797;43.864;21.410;2024-01-30T02:40:10;77.15;;;40.88;;
80481;SDS011;69797;43.864;21.410;2024-01-30T02:42:37;74.07;;;40.40;;
80481;SDS011;69797;43.864;21.410;2024-01-30T02:45:04;64.25;;;37.53;;
80481;SDS011;69797;43.864;21.410;2024-01-30T02:47:31;71.27;;;38.63;;
80481;SDS011;69797;43.864;21.410;2024-01-30T02:49:58;67.90;;;36.47;;
80481;SDS011;69797;43.864;21.410;2024-01-30T02:52:24;65.40;;;34.88;;
80481;SDS011;69797;43.864;21.410;2024-01-30T02:54:52;69.57;;;38.45;;
80481;SDS011;69797;43.864;21.410;2024-01-30T02:57:18;91.05;;;41.65;;
80481;SDS011;69797;43.864;21.410;2024-01-30T02:59:45;66.63;;;38.93;;
80481;SDS011;69797;43.864;21.410;2024-01-30T03:02:12;63.83;;;33.75;;
80481;SDS011;69797;43.864;21.410;2024-01-30T03:04:40;72.47;;;39.88;;
80481;SDS011;69797;43.864;21.410;2024-01-30T03:07:08;71.07;;;42.28;;
80481;SDS011;69797;43.864;21.410;2024-01-30T03:09:36;56.85;;;33.88;;
80481;SDS011;69797;43.864;21.410;2024-01-30T03:12:03;61.20;;;34.50;;
80481;SDS011;69797;43.864;21.410;2024-01-30T03:14:34;48.70;;;31.90;;
80481;SDS011;69797;43.864;21.410;2024-01-30T03:17:01;58.95;;;33.85;;
80481;SDS011;69797;43.864;21.410;2024-01-30T03:19:29;40.03;;;22.02;;
80481;SDS011;69797;43.864;21.410;2024-01-30T03:21:56;48.53;;;29.55;;
80481;SDS011;69797;43.864;21.410;2024-01-30T03:24:22;42.70;;;25.37;;
80481;SDS011;69797;43.864;21.410;2024-01-30T03:26:49;54.75;;;36.30;;
80481;SDS011;69797;43.864;21.410;2024-01-30T03:29:16;48.28;;;28.42;;
80481;SDS011;69797;43.864;21.410;2024-01-30T03:31:43;52.60;;;32.15;;
80481;SDS011;69797;43.864;21.410;2024-01-30T03:34:10;51.70;;;26.58;;
80481;SDS011;69797;43.864;21.410;2024-01-30T03:36:37;48.80;;;31.50;;
80481;SDS011;69797;43.864;21.410;2024-01-30T03:39:03;41.10;;;24.95;;
80481;SDS011;69797;43.864;21.410;2024-01-30T03:41:31;40.15;;;24.88;;
80481;SDS011;69797;43.864;21.410;2024-01-30T03:43:57;43.10;;;24.48;;
80481;SDS011;69797;43.864;21.410;2024-01-30T03:46:25;45.33;;;23.70;;
80481;SDS011;69797;43.864;21.410;2024-01-30T03:48:51;33.37;;;22.67;;
80481;SDS011;69797;43.864;21.410;2024-01-30T03:51:18;34.72;;;21.92;;
80481;SDS011;69797;43.864;21.410;2024-01-30T03:53:45;34.45;;;20.90;;
80481;SDS011;69797;43.864;21.410;2024-01-30T03:56:12;35.97;;;20.42;;
80481;SDS011;69797;43.864;21.410;2024-01-30T03:58:40;42.00;;;21.70;;
80481;SDS011;69797;43.864;21.410;2024-01-30T04:01:07;36.87;;;21.10;;
80481;SDS011;69797;43.864;21.410;2024-01-30T04:03:39;31.85;;;19.58;;
80481;SDS011;69797;43.864;21.410;2024-01-30T04:06:06;43.55;;;24.60;;
80481;SDS011;69797;43.864;21.410;2024-01-30T04:08:33;36.50;;;22.15;;
80481;SDS011;69797;43.864;21.410;2024-01-30T04:11:06;41.05;;;21.98;;
80481;SDS011;69797;43.864;21.410;2024-01-30T04:13:33;35.63;;;22.50;;
80481;SDS011;69797;43.864;21.410;2024-01-30T04:16:00;38.55;;;22.17;;
80481;SDS011;69797;43.864;21.410;2024-01-30T04:18:28;37.17;;;23.33;;
80481;SDS011;69797;43.864;21.410;2024-01-30T04:20:55;35.53;;;19.92;;
80481;SDS011;69797;43.864;21.410;2024-01-30T04:23:21;38.92;;;20.92;;
80481;SDS011;69797;43.864;21.410;2024-01-30T04:25:48;33.47;;;21.30;;
80481;SDS011;69797;43.864;21.410;2024-01-30T04:28:15;36.08;;;20.02;;
80481;SDS011;69797;43.864;21.410;2024-01-30T04:30:42;40.53;;;23.58;;
80481;SDS011;69797;43.864;21.410;2024-01-30T04:33:09;36.58;;;22.23;;
80481;SDS011;69797;43.864;21.410;2024-01-30T04:35:37;38.72;;;19.70;;
80481;SDS011;69797;43.864;21.410;2024-01-30T04:38:03;37.67;;;22.93;;
80481;SDS011;69797;43.864;21.410;2024-01-30T04:40:30;40.47;;;23.13;;
80481;SDS011;69797;43.864;21.410;2024-01-30T04:42:57;36.53;;;21.92;;
80481;SDS011;69797;43.864;21.410;2024-01-30T04:45:24;45.08;;;24.63;;
80481;SDS011;69797;43.864;21.410;2024-01-30T04:47:50;38.47;;;23.73;;
80481;SDS011;69797;43.864;21.410;2024-01-30T04:50:17;42.97;;;25.27;;
80481;SDS011;69797;43.864;21.410;2024-01-30T04:52:45;57.53;;;32.15;;
80481;SDS011;69797;43.864;21.410;2024-01-30T04:55:12;51.33;;;27.65;;
80481;SDS011;69797;43.864;21.410;2024-01-30T04:57:39;44.53;;;27.52;;
80481;SDS011;69797;43.864;21.410;2024-01-30T05:00:06;58.97;;;34.33;;
80481;SDS011;69797;43.864;21.410;2024-01-30T05:02:33;43.63;;;25.87;;
80481;SDS011;69797;43.864;21.410;2024-01-30T05:05:00;47.75;;;31.85;;
80481;SDS011;69797;43.864;21.410;2024-01-30T05:07:27;52.55;;;33.75;;
80481;SDS011;69797;43.864;21.410;2024-01-30T05:09:54;48.80;;;27.98;;
80481;SDS011;69797;43.864;21.410;2024-01-30T05:12:24;93.53;;;49.65;;
80481;SDS011;69797;43.864;21.410;2024-01-30T05:14:51;60.90;;;30.27;;
80481;SDS011;69797;43.864;21.410;2024-01-30T05:17:18;56.13;;;32.83;;
80481;SDS011;69797;43.864;21.410;2024-01-30T05:19:45;62.25;;;29.65;;
80481;SDS011;69797;43.864;21.410;2024-01-30T05:22:12;52.33;;;28.13;;
80481;SDS011;69797;43.864;21.410;2024-01-30T05:24:42;48.38;;;26.13;;
80481;SDS011;69797;43.864;21.410;2024-01-30T05:27:09;45.83;;;32.77;;
80481;SDS011;69797;43.864;21.410;2024-01-30T05:29:36;53.88;;;30.67;;
80481;SDS011;69797;43.864;21.410;2024-01-30T05:32:03;68.85;;;35.20;;
80481;SDS011;69797;43.864;21.410;2024-01-30T05:34:31;61.35;;;36.72;;
80481;SDS011;69797;43.864;21.410;2024-01-30T05:36:59;73.25;;;37.05;;
80481;SDS011;69797;43.864;21.410;2024-01-30T05:39:25;65.27;;;32.33;;
80481;SDS011;69797;43.864;21.410;2024-01-30T05:41:52;59.92;;;33.75;;
80481;SDS011;69797;43.864;21.410;2024-01-30T05:44:19;75.68;;;35.08;;
80481;SDS011;69797;43.864;21.410;2024-01-30T05:46:46;53.17;;;28.00;;
80481;SDS011;69797;43.864;21.410;2024-01-30T05:49:13;39.22;;;21.77;;
80481;SDS011;69797;43.864;21.410;2024-01-30T05:51:39;51.47;;;27.83;;
80481;SDS011;69797;43.864;21.410;2024-01-30T05:54:06;46.67;;;24.98;;
80481;SDS011;69797;43.864;21.410;2024-01-30T05:56:33;44.25;;;23.67;;
80481;SDS011;69797;43.864;21.410;2024-01-30T05:59:00;44.35;;;23.05;;
80481;SDS011;69797;43.864;21.410;2024-01-30T06:01:27;38.85;;;21.08;;
80481;SDS011;69797;43.864;21.410;2024-01-30T06:03:55;37.53;;;22.93;;
80481;SDS011;69797;43.864;21.410;2024-01-30T06:06:22;32.42;;;20.73;;
80481;SDS011;69797;43.864;21.410;2024-01-30T06:08:49;32.67;;;19.95;;
80481;SDS011;69797;43.864;21.410;2024-01-30T06:11:16;33.38;;;20.27;;
80481;SDS011;69797;43.864;21.410;2024-01-30T06:13:42;31.50;;;19.38;;
80481;SDS011;69797;43.864;21.410;2024-01-30T06:16:09;36.27;;;22.00;;
80481;SDS011;69797;43.864;21.410;2024-01-30T06:18:38;44.92;;;21.38;;
80481;SDS011;69797;43.864;21.410;2024-01-30T06:21:05;32.38;;;19.67;;
80481;SDS011;69797;43.864;21.410;2024-01-30T06:23:33;33.65;;;20.05;;
80481;SDS011;69797;43.864;21.410;2024-01-30T06:26:00;38.58;;;21.08;;
80481;SDS011;69797;43.864;21.410;2024-01-30T06:28:27;36.77;;;21.40;;
80481;SDS011;69797;43.864;21.410;2024-01-30T06:30:54;31.33;;;19.80;;
80481;SDS011;69797;43.864;21.410;2024-01-30T06:33:21;96.75;;;43.00;;
80481;SDS011;69797;43.864;21.410;2024-01-30T06:35:48;98.45;;;49.88;;
80481;SDS011;69797;43.864;21.410;2024-01-30T06:38:15;62.90;;;37.17;;
80481;SDS011;69797;43.864;21.410;2024-01-30T06:40:42;95.15;;;44.42;;
80481;SDS011;69797;43.864;21.410;2024-01-30T06:43:09;89.72;;;44.72;;
80481;SDS011;69797;43.864;21.410;2024-01-30T06:45:36;80.82;;;41.88;;
80481;SDS011;69797;43.864;21.410;2024-01-30T06:48:02;60.42;;;33.08;;
80481;SDS011;69797;43.864;21.410;2024-01-30T06:50:29;53.75;;;31.95;;
80481;SDS011;69797;43.864;21.410;2024-01-30T06:52:56;65.22;;;34.45;;
80481;SDS011;69797;43.864;21.410;2024-01-30T06:55:23;62.67;;;35.22;;
80481;SDS011;69797;43.864;21.410;2024-01-30T06:57:50;69.95;;;40.25;;
80481;SDS011;69797;43.864;21.410;2024-01-30T07:00:17;77.85;;;45.15;;
80481;SDS011;69797;43.864;21.410;2024-01-30T07:02:46;91.50;;;51.17;;
80481;SDS011;69797;43.864;21.410;2024-01-30T07:05:12;143.20;;;76.75;;
80481;SDS011;69797;43.864;21.410;2024-01-30T07:07:40;141.98;;;78.72;;
80481;SDS011;69797;43.864;21.410;2024-01-30T07:10:07;134.85;;;76.18;;
80481;SDS011;69797;43.864;21.410;2024-01-30T07:12:34;126.88;;;73.45;;
80481;SDS011;69797;43.864;21.410;2024-01-30T07:15:01;101.10;;;60.00;;
80481;SDS011;69797;43.864;21.410;2024-01-30T07:17:29;78.07;;;48.00;;
80481;SDS011;69797;43.864;21.410;2024-01-30T07:19:56;65.10;;;41.37;;
80481;SDS011;69797;43.864;21.410;2024-01-30T07:22:23;67.35;;;41.53;;
80481;SDS011;69797;43.864;21.410;2024-01-30T07:24:50;67.22;;;41.05;;
80481;SDS011;69797;43.864;21.410;2024-01-30T07:27:18;65.03;;;39.95;;
80481;SDS011;69797;43.864;21.410;2024-01-30T07:29:45;66.40;;;40.33;;
80481;SDS011;69797;43.864;21.410;2024-01-30T07:32:12;63.20;;;41.33;;
80481;SDS011;69797;43.864;21.410;2024-01-30T07:34:38;67.43;;;40.75;;
80481;SDS011;69797;43.864;21.410;2024-01-30T07:37:18;56.75;;;38.28;;
80481;SDS011;69797;43.864;21.410;2024-01-30T07:39:46;58.13;;;39.83;;
80481;SDS011;69797;43.864;21.410;2024-01-30T07:42:13;51.80;;;36.15;;
80481;SDS011;69797;43.864;21.410;2024-01-30T07:44:40;53.50;;;35.43;;
80481;SDS011;69797;43.864;21.410;2024-01-30T07:47:07;59.35;;;40.72;;
80481;SDS011;69797;43.864;21.410;2024-01-30T07:49:34;53.60;;;37.83;;
80481;SDS011;69797;43.864;21.410;2024-01-30T07:52:01;51.38;;;36.33;;
80481;SDS011;69797;43.864;21.410;2024-01-30T07:54:31;50.53;;;34.65;;
80481;SDS011;69797;43.864;21.410;2024-01-30T07:57:00;52.50;;;34.37;;
80481;SDS011;69797;43.864;21.410;2024-01-30T07:59:27;49.00;;;33.67;;
80481;SDS011;69797;43.864;21.410;2024-01-30T08:01:54;47.92;;;33.00;;
80481;SDS011;69797;43.864;21.410;2024-01-30T08:04:21;41.60;;;31.95;;
80481;SDS011;69797;43.864;21.410;2024-01-30T08:06:48;42.22;;;29.83;;
80481;SDS011;69797;43.864;21.410;2024-01-30T08:09:15;40.50;;;29.23;;
80481;SDS011;69797;43.864;21.410;2024-01-30T08:11:42;42.40;;;29.25;;
80481;SDS011;69797;43.864;21.410;2024-01-30T08:14:09;47.10;;;31.30;;
80481;SDS011;69797;43.864;21.410;2024-01-30T08:16:35;61.30;;;40.30;;
80481;SDS011;69797;43.864;21.410;2024-01-30T08:19:03;57.97;;;39.72;;
80481;SDS011;69797;43.864;21.410;2024-01-30T08:21:30;46.00;;;31.73;;
80481;SDS011;69797;43.864;21.410;2024-01-30T08:24:05;40.97;;;28.90;;
80481;SDS011;69797;43.864;21.410;2024-01-30T08:26:33;40.72;;;29.10;;
80481;SDS011;69797;43.864;21.410;2024-01-30T08:29:00;38.75;;;29.13;;
80481;SDS011;69797;43.864;21.410;2024-01-30T08:31:28;39.67;;;32.22;;
80481;SDS011;69797;43.864;21.410;2024-01-30T08:33:55;40.93;;;31.40;;
80481;SDS011;69797;43.864;21.410;2024-01-30T08:36:22;41.65;;;30.42;;
80481;SDS011;69797;43.864;21.410;2024-01-30T08:38:49;40.72;;;32.67;;
80481;SDS011;69797;43.864;21.410;2024-01-30T08:41:16;43.10;;;32.10;;
80481;SDS011;69797;43.864;21.410;2024-01-30T08:43:43;40.90;;;30.00;;
80481;SDS011;69797;43.864;21.410;2024-01-30T08:46:11;35.20;;;27.93;;
80481;SDS011;69797;43.864;21.410;2024-01-30T08:48:38;41.42;;;28.30;;
80481;SDS011;69797;43.864;21.410;2024-01-30T08:51:05;36.70;;;27.40;;
80481;SDS011;69797;43.864;21.410;2024-01-30T08:53:35;33.58;;;26.02;;
80481;SDS011;69797;43.864;21.410;2024-01-30T08:56:02;35.85;;;28.02;;
80481;SDS011;69797;43.864;21.410;2024-01-30T08:58:30;34.27;;;24.87;;
80481;SDS011;69797;43.864;21.410;2024-01-30T09:00:57;27.38;;;20.38;;
80481;SDS011;69797;43.864;21.410;2024-01-30T09:03:25;23.58;;;16.58;;
80481;SDS011;69797;43.864;21.410;2024-01-30T09:05:52;27.27;;;18.90;;
80481;SDS011;69797;43.864;21.410;2024-01-30T09:08:18;25.65;;;19.23;;
80481;SDS011;69797;43.864;21.410;2024-01-30T09:10:45;26.57;;;17.30;;
80481;SDS011;69797;43.864;21.410;2024-01-30T09:13:12;25.92;;;18.73;;
80481;SDS011;69797;43.864;21.410;2024-01-30T09:15:39;28.33;;;17.60;;
80481;SDS011;69797;43.864;21.410;2024-01-30T09:18:06;24.70;;;15.85;;
80481;SDS011;69797;43.864;21.410;2024-01-30T09:20:33;25.52;;;16.92;;
80481;SDS011;69797;43.864;21.410;2024-01-30T09:23:00;28.98;;;16.60;;
80481;SDS011;69797;43.864;21.410;2024-01-30T09:25:27;23.35;;;15.27;;
80481;SDS011;69797;43.864;21.410;2024-01-30T09:27:54;28.02;;;15.90;;
80481;SDS011;69797;43.864;21.410;2024-01-30T09:30:21;20.48;;;13.32;;
80481;SDS011;69797;43.864;21.410;2024-01-30T09:32:48;18.85;;;12.40;;
80481;SDS011;69797;43.864;21.410;2024-01-30T09:35:15;17.83;;;11.13;;
80481;SDS011;69797;43.864;21.410;2024-01-30T09:37:42;20.40;;;11.70;;
80481;SDS011;69797;43.864;21.410;2024-01-30T09:40:09;17.15;;;10.57;;
80481;SDS011;69797;43.864;21.410;2024-01-30T09:42:36;15.82;;;10.35;;
80481;SDS011;69797;43.864;21.410;2024-01-30T09:45:04;17.33;;;11.23;;
80481;SDS011;69797;43.864;21.410;2024-01-30T09:47:32;17.90;;;10.45;;
80481;SDS011;69797;43.864;21.410;2024-01-30T09:50:12;23.60;;;14.18;;
80481;SDS011;69797;43.864;21.410;2024-01-30T09:52:40;22.77;;;12.30;;
80481;SDS011;69797;43.864;21.410;2024-01-30T09:55:08;22.23;;;13.43;;
80481;SDS011;69797;43.864;21.410;2024-01-30T09:57:37;29.25;;;18.25;;
80481;SDS011;69797;43.864;21.410;2024-01-30T10:00:04;23.40;;;14.70;;
80481;SDS011;69797;43.864;21.410;2024-01-30T10:02:35;32.60;;;19.40;;
80481;SDS011;69797;43.864;21.410;2024-01-30T10:05:02;19.90;;;12.82;;
80481;SDS011;69797;43.864;21.410;2024-01-30T10:07:29;21.10;;;14.18;;
80481;SDS011;69797;43.864;21.410;2024-01-30T10:09:57;16.58;;;10.48;;
80481;SDS011;69797;43.864;21.410;2024-01-30T10:12:29;19.92;;;10.82;;
80481;SDS011;69797;43.864;21.410;2024-01-30T10:14:56;18.45;;;9.63;;
80481;SDS011;69797;43.864;21.410;2024-01-30T10:17:24;20.83;;;11.32;;
80481;SDS011;69797;43.864;21.410;2024-01-30T10:19:59;15.57;;;9.27;;
80481;SDS011;69797;43.864;21.410;2024-01-30T10:22:27;17.30;;;10.43;;
80481;SDS011;69797;43.864;21.410;2024-01-30T10:24:54;31.92;;;18.33;;
80481;SDS011;69797;43.864;21.410;2024-01-30T10:27:27;15.90;;;8.20;;
80481;SDS011;69797;43.864;21.410;2024-01-30T10:29:56;15.10;;;9.13;;
80481;SDS011;69797;43.864;21.410;2024-01-30T10:32:23;15.75;;;8.05;;
80481;SDS011;69797;43.864;21.410;2024-01-30T10:34:50;15.90;;;8.10;;
80481;SDS011;69797;43.864;21.410;2024-01-30T10:37:17;15.38;;;8.15;;
80481;SDS011;69797;43.864;21.410;2024-01-30T10:39:47;15.38;;;8.25;;
80481;SDS011;69797;43.864;21.410;2024-01-30T10:42:17;10.88;;;7.00;;
80481;SDS011;69797;43.864;21.410;2024-01-30T10:47:50;13.02;;;6.72;;
80481;SDS011;69797;43.864;21.410;2024-01-30T10:50:21;13.75;;;10.10;;
80481;SDS011;69797;43.864;21.410;2024-01-30T10:52:51;13.00;;;7.95;;
80481;SDS011;69797;43.864;21.410;2024-01-30T10:55:19;13.65;;;6.45;;
80481;SDS011;69797;43.864;21.410;2024-01-30T10:57:49;17.58;;;7.70;;
80481;SDS011;69797;43.864;21.410;2024-01-30T11:00:17;17.15;;;10.07;;
80481;SDS011;69797;43.864;21.410;2024-01-30T11:02:48;13.88;;;8.05;;
80481;SDS011;69797;43.864;21.410;2024-01-30T11:05:23;8.15;;;4.75;;
80481;SDS011;69797;43.864;21.410;2024-01-30T11:07:59;7.10;;;3.60;;
80481;SDS011;69797;43.864;21.410;2024-01-30T11:10:25;9.82;;;5.85;;
80481;SDS011;69797;43.864;21.410;2024-01-30T11:12:52;5.25;;;3.80;;
80481;SDS011;69797;43.864;21.410;2024-01-30T11:15:19;7.13;;;4.60;;
80481;SDS011;69797;43.864;21.410;2024-01-30T11:20:27;14.40;;;7.90;;
80481;SDS011;69797;43.864;21.410;2024-01-30T11:22:58;7.57;;;4.15;;
80481;SDS011;69797;43.864;21.410;2024-01-30T11:25:25;7.50;;;3.95;;
80481;SDS011;69797;43.864;21.410;2024-01-30T11:27:53;11.13;;;5.05;;
80481;SDS011;69797;43.864;21.410;2024-01-30T11:30:22;6.00;;;3.00;;
80481;SDS011;69797;43.864;21.410;2024-01-30T11:35:35;12.18;;;5.95;;
80481;SDS011;69797;43.864;21.410;2024-01-30T11:38:03;7.97;;;4.00;;
80481;SDS011;69797;43.864;21.410;2024-01-30T11:40:31;10.68;;;4.80;;
80481;SDS011;69797;43.864;21.410;2024-01-30T11:43:02;10.73;;;4.25;;
80481;SDS011;69797;43.864;21.410;2024-01-30T11:45:31;4.70;;;2.95;;
80481;SDS011;69797;43.864;21.410;2024-01-30T11:47:59;3.75;;;2.80;;
80481;SDS011;69797;43.864;21.410;2024-01-30T11:50:34;7.95;;;3.90;;
80481;SDS011;69797;43.864;21.410;2024-01-30T11:53:01;10.52;;;5.13;;
80481;SDS011;69797;43.864;21.410;2024-01-30T11:55:29;18.17;;;9.35;;
80481;SDS011;69797;43.864;21.410;2024-01-30T11:58:00;8.57;;;4.90;;
80481;SDS011;69797;43.864;21.410;2024-01-30T12:00:28;7.70;;;4.45;;
80481;SDS011;69797;43.864;21.410;2024-01-30T12:02:57;7.95;;;3.95;;
80481;SDS011;69797;43.864;21.410;2024-01-30T12:05:25;4.40;;;2.97;;
80481;SDS011;69797;43.864;21.410;2024-01-30T12:07:52;10.93;;;7.47;;
80481;SDS011;69797;43.864;21.410;2024-01-30T12:10:19;8.73;;;6.20;;
80481;SDS011;69797;43.864;21.410;2024-01-30T12:12:49;7.68;;;4.00;;
80481;SDS011;69797;43.864;21.410;2024-01-30T12:15:17;6.57;;;3.97;;
80481;SDS011;69797;43.864;21.410;2024-01-30T12:17:45;6.28;;;3.50;;
80481;SDS011;69797;43.864;21.410;2024-01-30T12:20:12;7.45;;;4.20;;
80481;SDS011;69797;43.864;21.410;2024-01-30T12:22:41;9.45;;;5.47;;
80481;SDS011;69797;43.864;21.410;2024-01-30T12:25:10;9.35;;;4.93;;
80481;SDS011;69797;43.864;21.410;2024-01-30T12:27:38;7.40;;;4.22;;
80481;SDS011;69797;43.864;21.410;2024-01-30T12:30:07;15.48;;;7.43;;
80481;SDS011;69797;43.864;21.410;2024-01-30T12:32:35;7.50;;;3.97;;
80481;SDS011;69797;43.864;21.410;2024-01-30T12:35:14;16.38;;;9.55;;
80481;SDS011;69797;43.864;21.410;2024-01-30T12:37:43;15.05;;;6.32;;
80481;SDS011;69797;43.864;21.410;2024-01-30T12:40:11;15.00;;;6.88;;
80481;SDS011;69797;43.864;21.410;2024-01-30T12:42:41;11.82;;;5.50;;
80481;SDS011;69797;43.864;21.410;2024-01-30T12:45:18;10.07;;;5.03;;
80481;SDS011;69797;43.864;21.410;2024-01-30T12:47:49;7.65;;;4.82;;
80481;SDS011;69797;43.864;21.410;2024-01-30T12:50:16;12.52;;;7.45;;
80481;SDS011;69797;43.864;21.410;2024-01-30T12:52:44;11.20;;;6.50;;
80481;SDS011;69797;43.864;21.410;2024-01-30T12:55:15;16.08;;;8.38;;
80481;SDS011;69797;43.864;21.410;2024-01-30T12:57:42;12.48;;;6.93;;
80481;SDS011;69797;43.864;21.410;2024-01-30T13:00:09;12.38;;;7.88;;
80481;SDS011;69797;43.864;21.410;2024-01-30T13:02:37;12.23;;;7.20;;
80481;SDS011;69797;43.864;21.410;2024-01-30T13:05:04;19.80;;;11.85;;
80481;SDS011;69797;43.864;21.410;2024-01-30T13:07:31;20.38;;;14.10;;
80481;SDS011;69797;43.864;21.410;2024-01-30T13:09:58;11.80;;;7.65;;
80481;SDS011;69797;43.864;21.410;2024-01-30T13:12:29;15.15;;;6.60;;
80481;SDS011;69797;43.864;21.410;2024-01-30T13:14:59;9.77;;;5.97;;
80481;SDS011;69797;43.864;21.410;2024-01-30T13:17:31;8.95;;;5.75;;
80481;SDS011;69797;43.864;21.410;2024-01-30T13:19:58;11.52;;;6.60;;
80481;SDS011;69797;43.864;21.410;2024-01-30T13:22:36;10.77;;;6.75;;
80481;SDS011;69797;43.864;21.410;2024-01-30T13:25:05;13.32;;;9.00;;
80481;SDS011;69797;43.864;21.410;2024-01-30T13:27:34;12.98;;;8.55;;
80481;SDS011;69797;43.864;21.410;2024-01-30T13:30:01;14.60;;;7.28;;
80481;SDS011;69797;43.864;21.410;2024-01-30T13:32:29;12.93;;;5.72;;
80481;SDS011;69797;43.864;21.410;2024-01-30T13:34:56;11.05;;;6.00;;
80481;SDS011;69797;43.864;21.410;2024-01-30T13:37:22;12.30;;;7.80;;
80481;SDS011;69797;43.864;21.410;2024-01-30T13:39:50;10.63;;;5.97;;
80481;SDS011;69797;43.864;21.410;2024-01-30T13:42:17;13.27;;;7.00;;
80481;SDS011;69797;43.864;21.410;2024-01-30T13:44:44;17.40;;;7.15;;
80481;SDS011;69797;43.864;21.410;2024-01-30T13:47:10;11.07;;;6.82;;
80481;SDS011;69797;43.864;21.410;2024-01-30T13:49:37;11.30;;;5.80;;
80481;SDS011;69797;43.864;21.410;2024-01-30T13:52:04;13.10;;;6.63;;
80481;SDS011;69797;43.864;21.410;2024-01-30T13:54:32;13.90;;;6.50;;
80481;SDS011;69797;43.864;21.410;2024-01-30T13:56:59;16.58;;;7.88;;
80481;SDS011;69797;43.864;21.410;2024-01-30T13:59:26;14.43;;;8.10;;
80481;SDS011;69797;43.864;21.410;2024-01-30T14:01:53;15.90;;;7.35;;
80481;SDS011;69797;43.864;21.410;2024-01-30T14:04:20;15.23;;;8.35;;
80481;SDS011;69797;43.864;21.410;2024-01-30T14:06:46;14.63;;;8.10;;
80481;SDS011;69797;43.864;21.410;2024-01-30T14:09:26;10.07;;;5.60;;
80481;SDS011;69797;43.864;21.410;2024-01-30T14:11:53;12.38;;;6.43;;
80481;SDS011;69797;43.864;21.410;2024-01-30T14:14:19;11.10;;;6.40;;
80481;SDS011;69797;43.864;21.410;2024-01-30T14:16:46;13.55;;;6.57;;
80481;SDS011;69797;43.864;21.410;2024-01-30T14:19:13;15.25;;;8.43;;
80481;SDS011;69797;43.864;21.410;2024-01-30T14:21:40;18.67;;;10.32;;
80481;SDS011;69797;43.864;21.410;2024-01-30T14:24:08;13.68;;;7.07;;